Terminal Aerodrome Forecast
Issued by NWS

Home | Current Version | Previous Version | Text Only | Print | Product List | Glossary On
Versions: 1 2 3 4 5 6 7 8 9 10 11 12 13 14
000
FTUS45 KTFX 012300
TAFHVR
TAF
KHVR 012334Z 0200/0224 21012KT P6SM SKC
     FM020500 13010KT P6SM BKN150
     FM021200 24010KT P6SM SCT050 BKN090
     FM021600 35017G25KT P6SM VCSH SCT030 BKN050
     FM021900 36020G28KT 3SM -SN BLSN SCT010 OVC025=

USA.gov is the U.S. government's official web portal to all federal, state and local government web resources and services.